sensor_id;sensor_type;location;lat;lon;timestamp;temperature;humidity
37300;DHT22;23184;51.902;12.836;2024-01-30T00:00:59;3.10;99.90
37300;DHT22;23184;51.902;12.836;2024-01-30T00:03:24;3.00;99.90
37300;DHT22;23184;51.902;12.836;2024-01-30T00:05:50;3.00;99.90
37300;DHT22;23184;51.902;12.836;2024-01-30T00:08:15;3.00;99.90
37300;DHT22;23184;51.902;12.836;2024-01-30T00:10:41;3.00;99.90
37300;DHT22;23184;51.902;12.836;2024-01-30T00:13:08;3.10;99.90
37300;DHT22;23184;51.902;12.836;2024-01-30T00:15:34;3.10;99.90
37300;DHT22;23184;51.902;12.836;2024-01-30T00:18:00;3.10;99.90
37300;DHT22;23184;51.902;12.836;2024-01-30T00:20:25;3.10;99.90
37300;DHT22;23184;51.902;12.836;2024-01-30T00:22:51;3.10;99.90
37300;DHT22;23184;51.902;12.836;2024-01-30T00:25:16;3.10;99.90
37300;DHT22;23184;51.902;12.836;2024-01-30T00:27:41;3.10;99.90
37300;DHT22;23184;51.902;12.836;2024-01-30T00:30:07;3.10;99.90
37300;DHT22;23184;51.902;12.836;2024-01-30T00:32:33;3.20;99.90
37300;DHT22;23184;51.902;12.836;2024-01-30T00:34:59;3.10;99.90
37300;DHT22;23184;51.902;12.836;2024-01-30T00:37:24;3.10;99.90
37300;DHT22;23184;51.902;12.836;2024-01-30T00:39:50;3.10;99.90
37300;DHT22;23184;51.902;12.836;2024-01-30T00:42:15;3.10;99.90
37300;DHT22;23184;51.902;12.836;2024-01-30T00:44:41;3.10;99.90
37300;DHT22;23184;51.902;12.836;2024-01-30T00:47:06;3.10;99.90
37300;DHT22;23184;51.902;12.836;2024-01-30T00:49:32;3.20;99.90
37300;DHT22;23184;51.902;12.836;2024-01-30T00:51:57;3.20;99.90
37300;DHT22;23184;51.902;12.836;2024-01-30T00:54:23;3.20;99.90
37300;DHT22;23184;51.902;12.836;2024-01-30T00:56:48;3.20;99.90
37300;DHT22;23184;51.902;12.836;2024-01-30T00:59:14;3.20;99.90
37300;DHT22;23184;51.902;12.836;2024-01-30T01:01:40;3.20;99.90
37300;DHT22;23184;51.902;12.836;2024-01-30T01:04:05;3.20;99.90
37300;DHT22;23184;51.902;12.836;2024-01-30T01:06:31;3.10;99.90
37300;DHT22;23184;51.902;12.836;2024-01-30T01:08:56;3.10;99.90
37300;DHT22;23184;51.902;12.836;2024-01-30T01:11:21;3.10;99.90
37300;DHT22;23184;51.902;12.836;2024-01-30T01:13:47;3.10;99.90
37300;DHT22;23184;51.902;12.836;2024-01-30T01:16:13;3.10;99.90
37300;DHT22;23184;51.902;12.836;2024-01-30T01:18:38;3.10;99.90
37300;DHT22;23184;51.902;12.836;2024-01-30T01:21:04;3.10;99.90
37300;DHT22;23184;51.902;12.836;2024-01-30T01:23:30;3.10;99.90
37300;DHT22;23184;51.902;12.836;2024-01-30T01:25:55;3.10;99.90
37300;DHT22;23184;51.902;12.836;2024-01-30T01:28:21;3.10;99.90
37300;DHT22;23184;51.902;12.836;2024-01-30T01:30:46;3.10;99.90
37300;DHT22;23184;51.902;12.836;2024-01-30T01:33:12;3.10;99.90
37300;DHT22;23184;51.902;12.836;2024-01-30T01:35:40;3.10;99.90
37300;DHT22;23184;51.902;12.836;2024-01-30T01:38:05;3.20;99.90
37300;DHT22;23184;51.902;12.836;2024-01-30T01:40:31;3.20;99.90
37300;DHT22;23184;51.902;12.836;2024-01-30T01:42:56;3.20;99.90
37300;DHT22;23184;51.902;12.836;2024-01-30T01:45:22;3.20;99.90
37300;DHT22;23184;51.902;12.836;2024-01-30T01:47:50;3.20;99.90
37300;DHT22;23184;51.902;12.836;2024-01-30T01:50:16;3.30;99.90
37300;DHT22;23184;51.902;12.836;2024-01-30T01:52:48;3.30;99.90
37300;DHT22;23184;51.902;12.836;2024-01-30T01:55:16;3.30;99.90
37300;DHT22;23184;51.902;12.836;2024-01-30T01:57:44;3.20;99.90
37300;DHT22;23184;51.902;12.836;2024-01-30T02:00:10;3.20;99.90
37300;DHT22;23184;51.902;12.836;2024-01-30T02:02:37;3.10;99.90
37300;DHT22;23184;51.902;12.836;2024-01-30T02:05:04;3.10;99.90
37300;DHT22;23184;51.902;12.836;2024-01-30T02:07:30;3.10;99.90
37300;DHT22;23184;51.902;12.836;2024-01-30T02:09:56;3.10;99.90
37300;DHT22;23184;51.902;12.836;2024-01-30T02:12:21;3.10;99.90
37300;DHT22;23184;51.902;12.836;2024-01-30T02:14:47;3.20;99.90
37300;DHT22;23184;51.902;12.836;2024-01-30T02:17:14;3.20;99.90
37300;DHT22;23184;51.902;12.836;2024-01-30T02:19:40;3.20;99.90
37300;DHT22;23184;51.902;12.836;2024-01-30T02:22:05;3.20;99.90
37300;DHT22;23184;51.902;12.836;2024-01-30T02:24:31;3.20;99.90
37300;DHT22;23184;51.902;12.836;2024-01-30T02:26:57;3.20;99.90
37300;DHT22;23184;51.902;12.836;2024-01-30T02:29:22;3.20;99.90
37300;DHT22;23184;51.902;12.836;2024-01-30T02:31:48;3.20;99.90
37300;DHT22;23184;51.902;12.836;2024-01-30T02:34:14;3.10;99.90
37300;DHT22;23184;51.902;12.836;2024-01-30T02:36:43;3.00;99.90
37300;DHT22;23184;51.902;12.836;2024-01-30T02:39:09;3.00;99.90
37300;DHT22;23184;51.902;12.836;2024-01-30T02:41:35;2.90;99.90
37300;DHT22;23184;51.902;12.836;2024-01-30T02:44:01;2.90;99.90
37300;DHT22;23184;51.902;12.836;2024-01-30T02:46:26;2.90;99.90
37300;DHT22;23184;51.902;12.836;2024-01-30T02:48:52;2.90;99.90
37300;DHT22;23184;51.902;12.836;2024-01-30T02:51:17;2.90;99.90
37300;DHT22;23184;51.902;12.836;2024-01-30T02:53:42;2.90;99.90
37300;DHT22;23184;51.902;12.836;2024-01-30T02:56:08;2.90;99.90
37300;DHT22;23184;51.902;12.836;2024-01-30T02:58:36;2.90;99.90
37300;DHT22;23184;51.902;12.836;2024-01-30T03:01:02;3.00;99.90
37300;DHT22;23184;51.902;12.836;2024-01-30T03:03:27;3.00;99.90
37300;DHT22;23184;51.902;12.836;2024-01-30T03:05:53;3.00;99.90
37300;DHT22;23184;51.902;12.836;2024-01-30T03:08:18;3.00;99.90
37300;DHT22;23184;51.902;12.836;2024-01-30T03:10:44;3.00;99.90
37300;DHT22;23184;51.902;12.836;2024-01-30T03:13:09;2.90;99.90
37300;DHT22;23184;51.902;12.836;2024-01-30T03:15:35;2.90;99.90
37300;DHT22;23184;51.902;12.836;2024-01-30T03:18:01;2.90;99.90
37300;DHT22;23184;51.902;12.836;2024-01-30T03:20:27;2.90;99.90
37300;DHT22;23184;51.902;12.836;2024-01-30T03:22:54;2.90;99.90
37300;DHT22;23184;51.902;12.836;2024-01-30T03:25:20;3.00;99.90
37300;DHT22;23184;51.902;12.836;2024-01-30T03:27:45;3.00;99.90
37300;DHT22;23184;51.902;12.836;2024-01-30T03:30:11;3.00;99.90
37300;DHT22;23184;51.902;12.836;2024-01-30T03:32:36;3.00;99.90
37300;DHT22;23184;51.902;12.836;2024-01-30T03:35:02;3.00;99.90
37300;DHT22;23184;51.902;12.836;2024-01-30T03:37:27;3.00;99.90
37300;DHT22;23184;51.902;12.836;2024-01-30T03:39:53;2.90;99.90
37300;DHT22;23184;51.902;12.836;2024-01-30T03:42:18;2.90;99.90
37300;DHT22;23184;51.902;12.836;2024-01-30T03:44:43;2.80;99.90
37300;DHT22;23184;51.902;12.836;2024-01-30T03:47:09;2.80;99.90
37300;DHT22;23184;51.902;12.836;2024-01-30T03:49:35;2.80;99.90
37300;DHT22;23184;51.902;12.836;2024-01-30T03:52:00;2.80;99.90
37300;DHT22;23184;51.902;12.836;2024-01-30T03:54:25;2.90;99.90
37300;DHT22;23184;51.902;12.836;2024-01-30T03:56:51;3.00;99.90
37300;DHT22;23184;51.902;12.836;2024-01-30T03:59:16;3.00;99.90
37300;DHT22;23184;51.902;12.836;2024-01-30T04:01:47;3.00;99.90
37300;DHT22;23184;51.902;12.836;2024-01-30T04:04:13;3.00;99.90
37300;DHT22;23184;51.902;12.836;2024-01-30T04:06:38;2.90;99.90
37300;DHT22;23184;51.902;12.836;2024-01-30T04:09:04;2.90;99.90
37300;DHT22;23184;51.902;12.836;2024-01-30T04:11:29;2.80;99.90
37300;DHT22;23184;51.902;12.836;2024-01-30T04:13:54;2.90;99.90
37300;DHT22;23184;51.902;12.836;2024-01-30T04:16:21;2.80;99.90
37300;DHT22;23184;51.902;12.836;2024-01-30T04:18:49;2.80;99.90
37300;DHT22;23184;51.902;12.836;2024-01-30T04:21:15;2.80;99.90
37300;DHT22;23184;51.902;12.836;2024-01-30T04:23:41;2.80;99.90
37300;DHT22;23184;51.902;12.836;2024-01-30T04:26:06;2.70;99.90
37300;DHT22;23184;51.902;12.836;2024-01-30T04:28:32;2.70;99.90
37300;DHT22;23184;51.902;12.836;2024-01-30T04:30:57;2.70;99.90
37300;DHT22;23184;51.902;12.836;2024-01-30T04:33:23;2.60;99.90
37300;DHT22;23184;51.902;12.836;2024-01-30T04:35:48;2.70;99.90
37300;DHT22;23184;51.902;12.836;2024-01-30T04:38:14;2.70;99.90
37300;DHT22;23184;51.902;12.836;2024-01-30T04:40:40;2.80;99.90
37300;DHT22;23184;51.902;12.836;2024-01-30T04:43:06;2.80;99.90
37300;DHT22;23184;51.902;12.836;2024-01-30T04:45:31;2.70;99.90
37300;DHT22;23184;51.902;12.836;2024-01-30T04:47:57;2.70;99.90
37300;DHT22;23184;51.902;12.836;2024-01-30T04:50:23;2.70;99.90
37300;DHT22;23184;51.902;12.836;2024-01-30T04:52:48;2.70;99.90
37300;DHT22;23184;51.902;12.836;2024-01-30T04:55:14;2.70;99.90
37300;DHT22;23184;51.902;12.836;2024-01-30T04:57:39;2.70;99.90
37300;DHT22;23184;51.902;12.836;2024-01-30T05:00:06;2.70;99.90
37300;DHT22;23184;51.902;12.836;2024-01-30T05:02:31;2.70;99.90
37300;DHT22;23184;51.902;12.836;2024-01-30T05:04:57;2.80;99.90
37300;DHT22;23184;51.902;12.836;2024-01-30T05:07:24;2.80;99.90
37300;DHT22;23184;51.902;12.836;2024-01-30T05:09:50;2.80;99.90
37300;DHT22;23184;51.902;12.836;2024-01-30T05:12:15;2.80;99.90
37300;DHT22;23184;51.902;12.836;2024-01-30T05:14:41;2.70;99.90
37300;DHT22;23184;51.902;12.836;2024-01-30T05:17:06;2.70;99.90
37300;DHT22;23184;51.902;12.836;2024-01-30T05:19:33;2.60;99.90
37300;DHT22;23184;51.902;12.836;2024-01-30T05:21:59;2.60;99.90
37300;DHT22;23184;51.902;12.836;2024-01-30T05:24:24;2.60;99.90
37300;DHT22;23184;51.902;12.836;2024-01-30T05:26:50;2.60;99.90
37300;DHT22;23184;51.902;12.836;2024-01-30T05:29:16;2.70;99.90
37300;DHT22;23184;51.902;12.836;2024-01-30T05:31:42;2.70;99.90
37300;DHT22;23184;51.902;12.836;2024-01-30T05:34:07;2.70;99.90
37300;DHT22;23184;51.902;12.836;2024-01-30T05:36:34;2.70;99.90
37300;DHT22;23184;51.902;12.836;2024-01-30T05:38:59;2.80;99.90
37300;DHT22;23184;51.902;12.836;2024-01-30T05:41:25;2.80;99.90
37300;DHT22;23184;51.902;12.836;2024-01-30T05:43:50;2.80;99.90
37300;DHT22;23184;51.902;12.836;2024-01-30T05:46:16;2.80;99.90
37300;DHT22;23184;51.902;12.836;2024-01-30T05:48:41;2.80;99.90
37300;DHT22;23184;51.902;12.836;2024-01-30T05:51:07;2.90;99.90
37300;DHT22;23184;51.902;12.836;2024-01-30T05:53:33;2.90;99.90
37300;DHT22;23184;51.902;12.836;2024-01-30T05:56:01;2.90;99.90
37300;DHT22;23184;51.902;12.836;2024-01-30T05:58:27;2.90;99.90
37300;DHT22;23184;51.902;12.836;2024-01-30T06:00:52;2.90;99.90
37300;DHT22;23184;51.902;12.836;2024-01-30T06:03:18;3.00;99.90
37300;DHT22;23184;51.902;12.836;2024-01-30T06:05:43;3.00;99.90
37300;DHT22;23184;51.902;12.836;2024-01-30T06:08:09;3.00;99.90
37300;DHT22;23184;51.902;12.836;2024-01-30T06:10:34;3.00;99.90
37300;DHT22;23184;51.902;12.836;2024-01-30T06:13:00;3.10;99.90
37300;DHT22;23184;51.902;12.836;2024-01-30T06:15:26;3.10;99.90
37300;DHT22;23184;51.902;12.836;2024-01-30T06:17:51;3.00;99.90
37300;DHT22;23184;51.902;12.836;2024-01-30T06:20:17;3.00;99.90
37300;DHT22;23184;51.902;12.836;2024-01-30T06:22:43;3.10;99.90
37300;DHT22;23184;51.902;12.836;2024-01-30T06:25:08;3.10;99.90
37300;DHT22;23184;51.902;12.836;2024-01-30T06:27:34;3.10;99.90
37300;DHT22;23184;51.902;12.836;2024-01-30T06:30:00;3.10;99.90
37300;DHT22;23184;51.902;12.836;2024-01-30T06:32:26;3.10;99.90
37300;DHT22;23184;51.902;12.836;2024-01-30T06:34:52;3.10;99.90
37300;DHT22;23184;51.902;12.836;2024-01-30T06:37:18;3.00;99.90
37300;DHT22;23184;51.902;12.836;2024-01-30T06:39:43;2.90;99.90
37300;DHT22;23184;51.902;12.836;2024-01-30T06:42:09;2.80;99.90
37300;DHT22;23184;51.902;12.836;2024-01-30T06:44:34;2.80;99.90
37300;DHT22;23184;51.902;12.836;2024-01-30T06:47:00;2.80;99.90
37300;DHT22;23184;51.902;12.836;2024-01-30T06:49:26;2.70;99.90
37300;DHT22;23184;51.902;12.836;2024-01-30T06:51:51;2.60;99.90
37300;DHT22;23184;51.902;12.836;2024-01-30T06:54:17;2.60;99.90
37300;DHT22;23184;51.902;12.836;2024-01-30T06:56:42;2.60;99.90
37300;DHT22;23184;51.902;12.836;2024-01-30T06:59:07;2.60;99.90
37300;DHT22;23184;51.902;12.836;2024-01-30T07:01:33;2.60;99.90
37300;DHT22;23184;51.902;12.836;2024-01-30T07:03:59;2.60;99.90
37300;DHT22;23184;51.902;12.836;2024-01-30T07:06:24;2.60;99.90
37300;DHT22;23184;51.902;12.836;2024-01-30T07:08:50;2.70;99.90
37300;DHT22;23184;51.902;12.836;2024-01-30T07:11:22;2.80;99.90
37300;DHT22;23184;51.902;12.836;2024-01-30T07:13:50;2.90;99.90
37300;DHT22;23184;51.902;12.836;2024-01-30T07:16:16;3.00;99.90
37300;DHT22;23184;51.902;12.836;2024-01-30T07:18:41;3.10;99.90
37300;DHT22;23184;51.902;12.836;2024-01-30T07:21:07;3.10;99.90
37300;DHT22;23184;51.902;12.836;2024-01-30T07:23:32;3.10;99.90
37300;DHT22;23184;51.902;12.836;2024-01-30T07:26:00;3.10;99.90
37300;DHT22;23184;51.902;12.836;2024-01-30T07:28:26;3.10;99.90
37300;DHT22;23184;51.902;12.836;2024-01-30T07:30:51;3.20;99.90
37300;DHT22;23184;51.902;12.836;2024-01-30T07:33:17;3.20;99.90
37300;DHT22;23184;51.902;12.836;2024-01-30T07:35:44;3.20;99.90
37300;DHT22;23184;51.902;12.836;2024-01-30T07:38:10;3.20;99.90
37300;DHT22;23184;51.902;12.836;2024-01-30T07:40:35;3.10;99.90
37300;DHT22;23184;51.902;12.836;2024-01-30T07:43:01;3.20;99.90
37300;DHT22;23184;51.902;12.836;2024-01-30T07:45:28;3.10;99.90
37300;DHT22;23184;51.902;12.836;2024-01-30T07:47:58;3.20;99.90
37300;DHT22;23184;51.902;12.836;2024-01-30T07:50:23;3.20;99.90
37300;DHT22;23184;51.902;12.836;2024-01-30T07:52:49;3.20;99.90
37300;DHT22;23184;51.902;12.836;2024-01-30T07:55:16;3.20;99.90
37300;DHT22;23184;51.902;12.836;2024-01-30T07:57:42;3.20;99.90
37300;DHT22;23184;51.902;12.836;2024-01-30T08:00:08;3.20;99.90
37300;DHT22;23184;51.902;12.836;2024-01-30T08:02:34;3.20;99.90
37300;DHT22;23184;51.902;12.836;2024-01-30T08:04:59;3.30;99.90
37300;DHT22;23184;51.902;12.836;2024-01-30T08:07:25;3.30;99.90
37300;DHT22;23184;51.902;12.836;2024-01-30T08:09:50;3.40;99.90
37300;DHT22;23184;51.902;12.836;2024-01-30T08:12:16;3.40;99.90
37300;DHT22;23184;51.902;12.836;2024-01-30T08:14:42;3.40;99.90
37300;DHT22;23184;51.902;12.836;2024-01-30T08:17:07;3.50;99.90
37300;DHT22;23184;51.902;12.836;2024-01-30T08:19:33;3.50;99.90
37300;DHT22;23184;51.902;12.836;2024-01-30T08:21:59;3.50;99.90
37300;DHT22;23184;51.902;12.836;2024-01-30T08:24:25;3.60;99.90
37300;DHT22;23184;51.902;12.836;2024-01-30T08:26:50;3.70;99.90
37300;DHT22;23184;51.902;12.836;2024-01-30T08:29:16;3.70;99.90
37300;DHT22;23184;51.902;12.836;2024-01-30T08:31:41;3.70;99.90
37300;DHT22;23184;51.902;12.836;2024-01-30T08:34:07;3.80;99.90
37300;DHT22;23184;51.902;12.836;2024-01-30T08:36:32;3.90;99.90
37300;DHT22;23184;51.902;12.836;2024-01-30T08:38:58;3.90;99.90
37300;DHT22;23184;51.902;12.836;2024-01-30T08:41:23;3.90;99.90
37300;DHT22;23184;51.902;12.836;2024-01-30T08:43:49;4.00;99.90
37300;DHT22;23184;51.902;12.836;2024-01-30T08:46:17;4.00;99.90
37300;DHT22;23184;51.902;12.836;2024-01-30T08:48:43;4.00;99.90
37300;DHT22;23184;51.902;12.836;2024-01-30T08:51:09;4.20;99.90
37300;DHT22;23184;51.902;12.836;2024-01-30T08:53:35;4.30;99.90
37300;DHT22;23184;51.902;12.836;2024-01-30T08:56:02;4.40;99.90
37300;DHT22;23184;51.902;12.836;2024-01-30T08:58:27;4.70;99.90
37300;DHT22;23184;51.902;12.836;2024-01-30T09:00:53;5.20;99.90
37300;DHT22;23184;51.902;12.836;2024-01-30T09:03:18;5.90;99.90
37300;DHT22;23184;51.902;12.836;2024-01-30T09:05:44;6.50;99.90
37300;DHT22;23184;51.902;12.836;2024-01-30T09:08:10;6.90;99.90
37300;DHT22;23184;51.902;12.836;2024-01-30T09:10:35;6.90;99.90
37300;DHT22;23184;51.902;12.836;2024-01-30T09:13:01;7.00;99.90
37300;DHT22;23184;51.902;12.836;2024-01-30T09:15:26;7.10;99.90
37300;DHT22;23184;51.902;12.836;2024-01-30T09:17:52;7.00;99.90
37300;DHT22;23184;51.902;12.836;2024-01-30T09:20:17;6.90;99.90
37300;DHT22;23184;51.902;12.836;2024-01-30T09:22:43;6.80;99.90
37300;DHT22;23184;51.902;12.836;2024-01-30T09:25:08;6.60;99.90
37300;DHT22;23184;51.902;12.836;2024-01-30T09:27:34;6.50;99.90
37300;DHT22;23184;51.902;12.836;2024-01-30T09:29:59;6.20;99.90
37300;DHT22;23184;51.902;12.836;2024-01-30T09:32:25;6.20;99.90
37300;DHT22;23184;51.902;12.836;2024-01-30T09:34:50;6.10;99.90
37300;DHT22;23184;51.902;12.836;2024-01-30T09:37:16;6.10;99.90
37300;DHT22;23184;51.902;12.836;2024-01-30T09:39:43;6.10;99.90
37300;DHT22;23184;51.902;12.836;2024-01-30T09:42:25;6.00;99.90
37300;DHT22;23184;51.902;12.836;2024-01-30T09:44:52;6.00;99.90
37300;DHT22;23184;51.902;12.836;2024-01-30T09:47:18;5.90;99.90
37300;DHT22;23184;51.902;12.836;2024-01-30T09:49:44;5.90;99.90
37300;DHT22;23184;51.902;12.836;2024-01-30T09:52:09;5.80;99.90
37300;DHT22;23184;51.902;12.836;2024-01-30T09:54:36;5.70;99.90
37300;DHT22;23184;51.902;12.836;2024-01-30T09:57:03;5.60;99.90
37300;DHT22;23184;51.902;12.836;2024-01-30T09:59:29;5.60;99.90
37300;DHT22;23184;51.902;12.836;2024-01-30T10:01:54;5.60;99.90
37300;DHT22;23184;51.902;12.836;2024-01-30T10:04:20;5.60;99.90
37300;DHT22;23184;51.902;12.836;2024-01-30T10:06:46;5.60;99.90
37300;DHT22;23184;51.902;12.836;2024-01-30T10:09:12;5.60;99.90
37300;DHT22;23184;51.902;12.836;2024-01-30T10:11:39;5.60;99.90
37300;DHT22;23184;51.902;12.836;2024-01-30T10:14:04;5.60;99.90
37300;DHT22;23184;51.902;12.836;2024-01-30T10:16:30;5.70;99.90
37300;DHT22;23184;51.902;12.836;2024-01-30T10:18:55;5.70;99.90
37300;DHT22;23184;51.902;12.836;2024-01-30T10:21:21;5.80;99.90
37300;DHT22;23184;51.902;12.836;2024-01-30T10:23:46;5.90;99.90
37300;DHT22;23184;51.902;12.836;2024-01-30T10:26:12;5.80;99.90
37300;DHT22;23184;51.902;12.836;2024-01-30T10:28:38;5.90;99.90
37300;DHT22;23184;51.902;12.836;2024-01-30T10:31:03;5.90;99.90
37300;DHT22;23184;51.902;12.836;2024-01-30T10:33:30;6.00;99.90
37300;DHT22;23184;51.902;12.836;2024-01-30T10:36:02;6.10;99.90
37300;DHT22;23184;51.902;12.836;2024-01-30T10:38:32;6.10;99.90
37300;DHT22;23184;51.902;12.836;2024-01-30T10:40:58;6.20;99.90
37300;DHT22;23184;51.902;12.836;2024-01-30T10:43:31;6.20;99.90
37300;DHT22;23184;51.902;12.836;2024-01-30T10:46:05;6.30;99.90
37300;DHT22;23184;51.902;12.836;2024-01-30T10:48:32;6.40;99.90
37300;DHT22;23184;51.902;12.836;2024-01-30T10:50:59;6.60;99.90
37300;DHT22;23184;51.902;12.836;2024-01-30T10:53:25;6.60;99.90
37300;DHT22;23184;51.902;12.836;2024-01-30T10:55:54;6.60;99.90
37300;DHT22;23184;51.902;12.836;2024-01-30T10:58:20;6.60;99.90
37300;DHT22;23184;51.902;12.836;2024-01-30T11:00:47;6.60;99.90
37300;DHT22;23184;51.902;12.836;2024-01-30T11:03:15;6.70;99.90
37300;DHT22;23184;51.902;12.836;2024-01-30T11:05:42;6.80;99.90
37300;DHT22;23184;51.902;12.836;2024-01-30T11:08:12;6.90;99.90
37300;DHT22;23184;51.902;12.836;2024-01-30T11:10:47;6.80;99.90
37300;DHT22;23184;51.902;12.836;2024-01-30T11:13:13;6.80;99.90
37300;DHT22;23184;51.902;12.836;2024-01-30T11:15:40;6.70;99.90
37300;DHT22;23184;51.902;12.836;2024-01-30T11:18:05;6.80;99.90
37300;DHT22;23184;51.902;12.836;2024-01-30T11:20:31;6.80;99.90
37300;DHT22;23184;51.902;12.836;2024-01-30T11:22:58;6.90;99.90
37300;DHT22;23184;51.902;12.836;2024-01-30T11:25:24;7.00;99.90
37300;DHT22;23184;51.902;12.836;2024-01-30T11:27:52;7.10;99.90
37300;DHT22;23184;51.902;12.836;2024-01-30T11:30:25;7.20;99.90
37300;DHT22;23184;51.902;12.836;2024-01-30T11:33:05;7.20;99.90
37300;DHT22;23184;51.902;12.836;2024-01-30T11:35:41;7.10;99.90
37300;DHT22;23184;51.902;12.836;2024-01-30T11:38:09;7.00;99.90
37300;DHT22;23184;51.902;12.836;2024-01-30T11:40:36;7.10;99.90
37300;DHT22;23184;51.902;12.836;2024-01-30T11:43:02;7.10;99.90
37300;DHT22;23184;51.902;12.836;2024-01-30T11:45:30;7.10;99.90
37300;DHT22;23184;51.902;12.836;2024-01-30T11:47:56;7.20;99.90
37300;DHT22;23184;51.902;12.836;2024-01-30T11:50:22;7.30;99.90
37300;DHT22;23184;51.902;12.836;2024-01-30T11:52:48;7.30;99.90
37300;DHT22;23184;51.902;12.836;2024-01-30T11:55:14;7.40;99.90
37300;DHT22;23184;51.902;12.836;2024-01-30T11:57:40;7.50;99.90
37300;DHT22;23184;51.902;12.836;2024-01-30T12:00:06;7.60;99.90
37300;DHT22;23184;51.902;12.836;2024-01-30T12:02:40;7.50;99.90
37300;DHT22;23184;51.902;12.836;2024-01-30T12:05:06;7.60;99.90
37300;DHT22;23184;51.902;12.836;2024-01-30T12:07:32;7.70;99.90
37300;DHT22;23184;51.902;12.836;2024-01-30T12:09:58;7.70;99.90
37300;DHT22;23184;51.902;12.836;2024-01-30T12:12:25;7.70;99.90
37300;DHT22;23184;51.902;12.836;2024-01-30T12:14:50;7.70;99.90
37300;DHT22;23184;51.902;12.836;2024-01-30T12:17:28;7.70;99.90
37300;DHT22;23184;51.902;12.836;2024-01-30T12:22:29;7.70;99.90
37300;DHT22;23184;51.902;12.836;2024-01-30T12:24:54;7.80;99.90
37300;DHT22;23184;51.902;12.836;2024-01-30T12:27:20;7.90;99.90
37300;DHT22;23184;51.902;12.836;2024-01-30T12:29:45;8.00;99.90
37300;DHT22;23184;51.902;12.836;2024-01-30T12:32:18;8.00;99.90
37300;DHT22;23184;51.902;12.836;2024-01-30T12:34:43;8.10;99.90
37300;DHT22;23184;51.902;12.836;2024-01-30T12:37:09;8.10;99.90
37300;DHT22;23184;51.902;12.836;2024-01-30T12:39:35;8.10;99.90
37300;DHT22;23184;51.902;12.836;2024-01-30T12:42:01;8.20;99.90
37300;DHT22;23184;51.902;12.836;2024-01-30T12:44:26;8.20;99.90
37300;DHT22;23184;51.902;12.836;2024-01-30T12:46:52;8.10;99.90
37300;DHT22;23184;51.902;12.836;2024-01-30T12:49:17;8.10;99.90
37300;DHT22;23184;51.902;12.836;2024-01-30T12:51:43;8.10;99.90
37300;DHT22;23184;51.902;12.836;2024-01-30T12:54:09;8.20;99.90
37300;DHT22;23184;51.902;12.836;2024-01-30T12:56:34;8.20;99.90
37300;DHT22;23184;51.902;12.836;2024-01-30T12:59:00;8.20;99.90
37300;DHT22;23184;51.902;12.836;2024-01-30T13:01:25;8.20;99.90
37300;DHT22;23184;51.902;12.836;2024-01-30T13:03:51;8.30;99.90
37300;DHT22;23184;51.902;12.836;2024-01-30T13:06:17;8.30;99.90
37300;DHT22;23184;51.902;12.836;2024-01-30T13:08:43;8.30;99.90
37300;DHT22;23184;51.902;12.836;2024-01-30T13:11:08;8.30;99.90
37300;DHT22;23184;51.902;12.836;2024-01-30T13:13:34;8.30;99.90
37300;DHT22;23184;51.902;12.836;2024-01-30T13:16:00;8.40;99.90
37300;DHT22;23184;51.902;12.836;2024-01-30T13:18:26;8.40;99.90
37300;DHT22;23184;51.902;12.836;2024-01-30T13:20:51;8.30;99.90
37300;DHT22;23184;51.902;12.836;2024-01-30T13:23:17;8.30;99.90
37300;DHT22;23184;51.902;12.836;2024-01-30T13:25:43;8.40;99.90
37300;DHT22;23184;51.902;12.836;2024-01-30T13:28:08;8.40;99.90
37300;DHT22;23184;51.902;12.836;2024-01-30T13:30:34;8.40;99.90
37300;DHT22;23184;51.902;12.836;2024-01-30T13:32:59;8.40;99.90
37300;DHT22;23184;51.902;12.836;2024-01-30T13:35:25;8.40;99.90
37300;DHT22;23184;51.902;12.836;2024-01-30T13:37:50;8.50;99.90
37300;DHT22;23184;51.902;12.836;2024-01-30T13:40:16;8.50;99.90
37300;DHT22;23184;51.902;12.836;2024-01-30T13:42:41;8.50;99.90
37300;DHT22;23184;51.902;12.836;2024-01-30T13:45:07;8.60;99.90
37300;DHT22;23184;51.902;12.836;2024-01-30T13:47:35;8.50;99.90
37300;DHT22;23184;51.902;12.836;2024-01-30T13:50:00;8.50;99.90
37300;DHT22;23184;51.902;12.836;2024-01-30T13:52:26;8.50;99.90
37300;DHT22;23184;51.902;12.836;2024-01-30T13:54:52;8.50;99.90
37300;DHT22;23184;51.902;12.836;2024-01-30T13:57:18;8.50;99.90
37300;DHT22;23184;51.902;12.836;2024-01-30T13:59:44;8.50;99.90
37300;DHT22;23184;51.902;12.836;2024-01-30T14:02:09;8.50;99.90
37300;DHT22;23184;51.902;12.836;2024-01-30T14:04:35;8.50;99.90
37300;DHT22;23184;51.902;12.836;2024-01-30T14:07:03;8.50;99.90
37300;DHT22;23184;51.902;12.836;2024-01-30T14:09:28;8.40;99.90
37300;DHT22;23184;51.902;12.836;2024-01-30T14:11:55;8.40;99.90
37300;DHT22;23184;51.902;12.836;2024-01-30T14:14:20;8.40;99.90
37300;DHT22;23184;51.902;12.836;2024-01-30T14:16:45;8.40;99.90
37300;DHT22;23184;51.902;12.836;2024-01-30T14:19:11;8.30;99.90
37300;DHT22;23184;51.902;12.836;2024-01-30T14:21:36;8.30;99.90
37300;DHT22;23184;51.902;12.836;2024-01-30T14:24:02;8.40;99.90
37300;DHT22;23184;51.902;12.836;2024-01-30T14:26:28;8.30;99.90
37300;DHT22;23184;51.902;12.836;2024-01-30T14:28:54;8.30;99.90
37300;DHT22;23184;51.902;12.836;2024-01-30T14:31:20;8.30;99.90
37300;DHT22;23184;51.902;12.836;2024-01-30T14:33:47;8.30;99.90
37300;DHT22;23184;51.902;12.836;2024-01-30T14:36:12;8.30;99.90
37300;DHT22;23184;51.902;12.836;2024-01-30T14:38:39;8.30;99.90
37300;DHT22;23184;51.902;12.836;2024-01-30T14:41:04;8.30;99.90
37300;DHT22;23184;51.902;12.836;2024-01-30T14:43:31;8.30;99.90
37300;DHT22;23184;51.902;12.836;2024-01-30T14:45:56;8.20;99.90
37300;DHT22;23184;51.902;12.836;2024-01-30T14:48:23;8.20;99.90
37300;DHT22;23184;51.902;12.836;2024-01-30T14:50:48;8.10;99.90
37300;DHT22;23184;51.902;12.836;2024-01-30T14:53:14;8.10;99.90
37300;DHT22;23184;51.902;12.836;2024-01-30T14:55:39;8.10;99.90
37300;DHT22;23184;51.902;12.836;2024-01-30T14:58:05;8.10;99.90
37300;DHT22;23184;51.902;12.836;2024-01-30T15:00:31;8.10;99.90
37300;DHT22;23184;51.902;12.836;2024-01-30T15:02:56;8.00;99.90
37300;DHT22;23184;51.902;12.836;2024-01-30T15:05:22;8.10;99.90
37300;DHT22;23184;51.902;12.836;2024-01-30T15:07:47;8.10;99.90
37300;DHT22;23184;51.902;12.836;2024-01-30T15:10:13;8.10;99.90
37300;DHT22;23184;51.902;12.836;2024-01-30T15:12:38;8.10;99.90
37300;DHT22;23184;51.902;12.836;2024-01-30T15:15:06;8.00;99.90
37300;DHT22;23184;51.902;12.836;2024-01-30T15:17:32;7.90;99.90
37300;DHT22;23184;51.902;12.836;2024-01-30T15:19:58;7.90;99.90
37300;DHT22;23184;51.902;12.836;2024-01-30T15:22:25;7.90;99.90
37300;DHT22;23184;51.902;12.836;2024-01-30T15:24:51;7.90;99.90